Time;durP1;ratioP1;P1;durP2;ratioP2;P2;SDS_P1;SDS_P2;PMS_P1;PMS_P2;Temp;Humidity;BMP_temperature;BMP_pressure;BME280_temperature;BME280_humidity;BME280_pressure;Samples;Min_cycle;Max_cycle;Signal;HPM_P1;HPM_P2
2022/08/21 00:00:00;;;;;;;0.2;0.2;;;;;;;18.3;100.0;101450;;;;
2022/08/21 00:01:01;;;;;;;0.3;0.3;;;;;;;18.3;100.0;101450;;;;
2022/08/21 00:02:00;;;;;;;0.3;0.3;;;;;;;18.2;100.0;101450;;;;
2022/08/21 00:03:01;;;;;;;0.3;0.3;;;;;;;18.2;100.0;101450;;;;
2022/08/21 00:04:05;;;;;;;0.3;0.3;;;;;;;18.1;100.0;101450;;;;
2022/08/21 00:05:00;;;;;;;0.3;0.3;;;;;;;18.1;100.0;101450;;;;
2022/08/21 00:06:00;;;;;;;0.3;0.3;;;;;;;18.2;100.0;101450;;;;
2022/08/21 00:07:00;;;;;;;0.3;0.3;;;;;;;18.2;100.0;101450;;;;
2022/08/21 00:08:00;;;;;;;0.3;0.3;;;;;;;18.0;100.0;101450;;;;
2022/08/21 00:09:06;;;;;;;0.3;0.3;;;;;;;18.2;100.0;101450;;;;
2022/08/21 00:10:00;;;;;;;0.3;0.3;;;;;;;18.2;100.0;101450;;;;
2022/08/21 00:11:00;;;;;;;0.3;0.3;;;;;;;18.2;100.0;101450;;;;
2022/08/21 00:12:00;;;;;;;0.3;0.3;;;;;;;18.3;100.0;101450;;;;
2022/08/21 00:13:01;;;;;;;0.3;0.3;;;;;;;18.3;100.0;101450;;;;
2022/08/21 00:14:00;;;;;;;0.3;0.3;;;;;;;18.2;100.0;101450;;;;
2022/08/21 00:15:00;;;;;;;0.3;0.3;;;;;;;18.2;100.0;101450;;;;
2022/08/21 00:16:00;;;;;;;0.3;0.3;;;;;;;18.2;100.0;101440;;;;
2022/08/21 00:17:00;;;;;;;0.3;0.3;;;;;;;18.2;100.0;101440;;;;
2022/08/21 00:18:00;;;;;;;0.3;0.3;;;;;;;18.2;100.0;101440;;;;
2022/08/21 00:19:00;;;;;;;0.3;0.3;;;;;;;18.2;100.0;101440;;;;
2022/08/21 00:20:00;;;;;;;0.3;0.3;;;;;;;18.2;100.0;101440;;;;
2022/08/21 00:21:00;;;;;;;0.3;0.3;;;;;;;18.2;100.0;101440;;;;
2022/08/21 00:22:00;;;;;;;0.3;0.3;;;;;;;18.2;100.0;101440;;;;
2022/08/21 00:23:00;;;;;;;0.3;0.3;;;;;;;18.2;100.0;101440;;;;
2022/08/21 00:24:00;;;;;;;0.3;0.3;;;;;;;18.1;100.0;101440;;;;
2022/08/21 00:25:00;;;;;;;0.3;0.3;;;;;;;18.1;100.0;101440;;;;
2022/08/21 00:26:00;;;;;;;0.3;0.3;;;;;;;18.1;100.0;101440;;;;
2022/08/21 00:27:00;;;;;;;0.3;0.3;;;;;;;18.1;100.0;101440;;;;
2022/08/21 00:28:01;;;;;;;0.3;0.3;;;;;;;18.1;100.0;101440;;;;
2022/08/21 00:29:01;;;;;;;0.3;0.3;;;;;;;18.1;100.0;101440;;;;
2022/08/21 00:30:00;;;;;;;0.3;0.3;;;;;;;17.5;100.0;101440;;;;
2022/08/21 00:31:00;;;;;;;0.3;0.3;;;;;;;17.5;100.0;101440;;;;
2022/08/21 00:32:00;;;;;;;0.3;0.3;;;;;;;17.9;100.0;101440;;;;
2022/08/21 00:33:00;;;;;;;0.3;0.3;;;;;;;17.9;100.0;101440;;;;
2022/08/21 00:34:01;;;;;;;0.3;0.3;;;;;;;17.8;100.0;101440;;;;
2022/08/21 00:35:00;;;;;;;0.3;0.3;;;;;;;17.8;100.0;101440;;;;
2022/08/21 00:36:01;;;;;;;0.3;0.3;;;;;;;17.8;100.0;101440;;;;
2022/08/21 00:37:00;;;;;;;0.3;0.3;;;;;;;17.8;100.0;101440;;;;
2022/08/21 00:38:00;;;;;;;0.3;0.3;;;;;;;17.5;100.0;101430;;;;
2022/08/21 00:39:00;;;;;;;0.3;0.3;;;;;;;17.5;100.0;101430;;;;
2022/08/21 00:40:00;;;;;;;0.3;0.3;;;;;;;17.5;100.0;101440;;;;
2022/08/21 00:41:13;;;;;;;0.4;0.4;;;;;;;17.8;100.0;101430;;;;
2022/08/21 00:42:00;;;;;;;0.4;0.4;;;;;;;17.8;100.0;101430;;;;
2022/08/21 00:43:01;;;;;;;0.4;0.4;;;;;;;17.8;100.0;101430;;;;
2022/08/21 00:44:00;;;;;;;0.4;0.4;;;;;;;17.8;100.0;101430;;;;
2022/08/21 00:45:00;;;;;;;0.4;0.4;;;;;;;17.8;100.0;101430;;;;
2022/08/21 00:46:00;;;;;;;0.4;0.4;;;;;;;17.9;100.0;101430;;;;
2022/08/21 00:47:00;;;;;;;0.4;0.4;;;;;;;17.9;100.0;101430;;;;
2022/08/21 00:48:00;;;;;;;0.4;0.4;;;;;;;17.9;100.0;101430;;;;
2022/08/21 00:49:00;;;;;;;0.4;0.4;;;;;;;17.9;100.0;101430;;;;
2022/08/21 00:50:00;;;;;;;0.4;0.4;;;;;;;17.5;100.0;101430;;;;
2022/08/21 00:51:09;;;;;;;0.4;0.4;;;;;;;17.7;100.0;101430;;;;
2022/08/21 00:52:00;;;;;;;0.4;0.4;;;;;;;17.7;100.0;101430;;;;
2022/08/21 00:53:01;;;;;;;0.4;0.4;;;;;;;17.7;100.0;101430;;;;
2022/08/21 00:54:03;;;;;;;0.4;0.4;;;;;;;17.7;100.0;101430;;;;
2022/08/21 00:55:01;;;;;;;0.4;0.4;;;;;;;17.7;100.0;101430;;;;
2022/08/21 00:56:03;;;;;;;0.4;0.4;;;;;;;17.8;100.0;101430;;;;
2022/08/21 00:57:04;;;;;;;0.4;0.4;;;;;;;17.8;100.0;101430;;;;
2022/08/21 00:58:01;;;;;;;0.4;0.4;;;;;;;17.7;100.0;101430;;;;
2022/08/21 00:59:01;;;;;;;0.4;0.4;;;;;;;17.7;100.0;101430;;;;
2022/08/21 01:00:01;;;;;;;0.4;0.4;;;;;;;17.7;100.0;101430;;;;
2022/08/21 01:01:06;;;;;;;0.3;0.3;;;;;;;17.6;100.0;101430;;;;
2022/08/21 01:02:00;;;;;;;0.3;0.3;;;;;;;17.6;100.0;101430;;;;
2022/08/21 01:03:07;;;;;;;0.3;0.3;;;;;;;17.7;100.0;101430;;;;
2022/08/21 01:04:00;;;;;;;0.3;0.3;;;;;;;17.7;100.0;101430;;;;
2022/08/21 01:05:00;;;;;;;0.3;0.3;;;;;;;17.7;100.0;101430;;;;
2022/08/21 01:06:00;;;;;;;0.3;0.3;;;;;;;17.6;100.0;101430;;;;
2022/08/21 01:07:00;;;;;;;0.3;0.3;;;;;;;17.6;100.0;101430;;;;
2022/08/21 01:08:00;;;;;;;0.3;0.3;;;;;;;17.3;100.0;101430;;;;
2022/08/21 01:09:00;;;;;;;0.3;0.3;;;;;;;17.3;100.0;101430;;;;
2022/08/21 01:10:01;;;;;;;0.3;0.3;;;;;;;17.3;100.0;101430;;;;
2022/08/21 01:11:03;;;;;;;0.3;0.3;;;;;;;17.3;100.0;101430;;;;
2022/08/21 01:12:00;;;;;;;0.3;0.3;;;;;;;17.2;100.0;101430;;;;
2022/08/21 01:13:00;;;;;;;0.3;0.3;;;;;;;17.2;100.0;101430;;;;
2022/08/21 01:14:00;;;;;;;0.3;0.3;;;;;;;17.2;100.0;101430;;;;
2022/08/21 01:15:04;;;;;;;0.3;0.3;;;;;;;17.2;100.0;101430;;;;
2022/08/21 01:16:02;;;;;;;0.3;0.3;;;;;;;17.2;100.0;101430;;;;
2022/08/21 01:17:00;;;;;;;0.3;0.3;;;;;;;17.2;100.0;101430;;;;
2022/08/21 01:18:00;;;;;;;0.3;0.3;;;;;;;17.4;100.0;101430;;;;
2022/08/21 01:19:00;;;;;;;0.3;0.3;;;;;;;17.4;100.0;101430;;;;
2022/08/21 01:20:04;;;;;;;0.3;0.3;;;;;;;17.3;100.0;101440;;;;
2022/08/21 01:21:05;;;;;;;0.4;0.4;;;;;;;17.3;100.0;101440;;;;
2022/08/21 01:22:00;;;;;;;0.4;0.4;;;;;;;17.4;100.0;101440;;;;
2022/08/21 01:23:01;;;;;;;0.4;0.4;;;;;;;17.4;100.0;101440;;;;
2022/08/21 01:24:00;;;;;;;0.4;0.4;;;;;;;17.4;100.0;101430;;;;
2022/08/21 01:25:00;;;;;;;0.4;0.4;;;;;;;17.4;100.0;101430;;;;
2022/08/21 01:26:00;;;;;;;0.4;0.4;;;;;;;17.2;100.0;101430;;;;
2022/08/21 01:27:01;;;;;;;0.4;0.4;;;;;;;17.2;100.0;101430;;;;
2022/08/21 01:28:04;;;;;;;0.4;0.4;;;;;;;17.3;100.0;101430;;;;
2022/08/21 01:29:05;;;;;;;0.4;0.4;;;;;;;17.3;100.0;101430;;;;
2022/08/21 01:30:07;;;;;;;0.4;0.4;;;;;;;17.4;100.0;101430;;;;
2022/08/21 01:31:01;;;;;;;0.4;0.4;;;;;;;17.4;100.0;101430;;;;
2022/08/21 01:32:03;;;;;;;0.4;0.4;;;;;;;17.1;100.0;101430;;;;
2022/08/21 01:33:00;;;;;;;0.4;0.4;;;;;;;17.1;100.0;101430;;;;
2022/08/21 01:34:00;;;;;;;0.4;0.4;;;;;;;17.2;100.0;101430;;;;
2022/08/21 01:35:00;;;;;;;0.4;0.4;;;;;;;17.2;100.0;101430;;;;
2022/08/21 01:36:00;;;;;;;0.4;0.4;;;;;;;17.0;100.0;101430;;;;
2022/08/21 01:37:00;;;;;;;0.4;0.4;;;;;;;17.0;100.0;101430;;;;
2022/08/21 01:38:00;;;;;;;0.4;0.4;;;;;;;17.1;100.0;101430;;;;
2022/08/21 01:39:00;;;;;;;0.4;0.4;;;;;;;17.1;100.0;101430;;;;
2022/08/21 01:40:00;;;;;;;0.4;0.4;;;;;;;17.3;100.0;101430;;;;
2022/08/21 01:41:00;;;;;;;1.4;0.6;;;;;;;17.3;100.0;101430;;;;
2022/08/21 01:42:00;;;;;;;1.4;0.6;;;;;;;17.3;100.0;101430;;;;
2022/08/21 01:43:00;;;;;;;1.4;0.6;;;;;;;17.3;100.0;101430;;;;
2022/08/21 01:44:00;;;;;;;1.4;0.6;;;;;;;17.3;100.0;101430;;;;
2022/08/21 01:45:00;;;;;;;1.4;0.6;;;;;;;17.3;100.0;101430;;;;
2022/08/21 01:46:02;;;;;;;1.4;0.6;;;;;;;17.3;100.0;101430;;;;
2022/08/21 01:47:01;;;;;;;1.4;0.6;;;;;;;17.3;100.0;101430;;;;
2022/08/21 01:48:00;;;;;;;1.4;0.6;;;;;;;17.3;100.0;101430;;;;
2022/08/21 01:49:00;;;;;;;1.4;0.6;;;;;;;17.3;100.0;101430;;;;
2022/08/21 01:50:00;;;;;;;1.4;0.6;;;;;;;17.3;100.0;101430;;;;
2022/08/21 01:51:00;;;;;;;1.4;0.6;;;;;;;17.3;100.0;101430;;;;
2022/08/21 01:52:00;;;;;;;1.4;0.6;;;;;;;17.3;100.0;101420;;;;
2022/08/21 01:53:00;;;;;;;1.4;0.6;;;;;;;17.3;100.0;101420;;;;
2022/08/21 01:54:00;;;;;;;1.4;0.6;;;;;;;17.3;100.0;101420;;;;
2022/08/21 01:55:00;;;;;;;1.4;0.6;;;;;;;17.3;100.0;101420;;;;
2022/08/21 01:56:00;;;;;;;1.4;0.6;;;;;;;17.2;100.0;101430;;;;
2022/08/21 01:57:00;;;;;;;1.4;0.6;;;;;;;17.2;100.0;101430;;;;
2022/08/21 01:58:00;;;;;;;1.4;0.6;;;;;;;17.2;100.0;101420;;;;
2022/08/21 01:59:00;;;;;;;1.4;0.6;;;;;;;17.2;100.0;101420;;;;
2022/08/21 02:00:00;;;;;;;1.4;0.6;;;;;;;17.2;100.0;101420;;;;
2022/08/21 02:01:01;;;;;;;1.2;1.1;;;;;;;17.2;100.0;101420;;;;
2022/08/21 02:02:00;;;;;;;1.2;1.1;;;;;;;17.1;100.0;101420;;;;
2022/08/21 02:03:00;;;;;;;1.2;1.1;;;;;;;17.1;100.0;101420;;;;
2022/08/21 02:04:00;;;;;;;1.2;1.1;;;;;;;17.1;100.0;101420;;;;
2022/08/21 02:05:00;;;;;;;1.2;1.1;;;;;;;17.1;100.0;101420;;;;
2022/08/21 02:06:00;;;;;;;1.2;1.1;;;;;;;17.1;100.0;101420;;;;
2022/08/21 02:07:01;;;;;;;1.2;1.1;;;;;;;17.1;100.0;101420;;;;
2022/08/21 02:08:00;;;;;;;1.2;1.1;;;;;;;16.9;100.0;101420;;;;
2022/08/21 02:09:00;;;;;;;1.2;1.1;;;;;;;16.9;100.0;101420;;;;
2022/08/21 02:10:00;;;;;;;1.2;1.1;;;;;;;17.0;100.0;101420;;;;
2022/08/21 02:11:00;;;;;;;1.2;1.1;;;;;;;17.0;100.0;101420;;;;
2022/08/21 02:12:00;;;;;;;1.2;1.1;;;;;;;17.0;100.0;101420;;;;
2022/08/21 02:13:00;;;;;;;1.2;1.1;;;;;;;17.0;100.0;101420;;;;
2022/08/21 02:14:00;;;;;;;1.2;1.1;;;;;;;17.0;100.0;101420;;;;
2022/08/21 02:15:00;;;;;;;1.2;1.1;;;;;;;17.0;100.0;101420;;;;
2022/08/21 02:16:00;;;;;;;1.2;1.1;;;;;;;17.0;100.0;101410;;;;
2022/08/21 02:17:09;;;;;;;1.2;1.1;;;;;;;16.8;100.0;101410;;;;
2022/08/21 02:18:01;;;;;;;1.2;1.1;;;;;;;16.8;100.0;101410;;;;
2022/08/21 02:19:00;;;;;;;1.2;1.1;;;;;;;16.8;100.0;101410;;;;
2022/08/21 02:20:00;;;;;;;1.2;1.1;;;;;;;16.6;100.0;101400;;;;
2022/08/21 02:21:00;;;;;;;0.4;0.4;;;;;;;16.6;100.0;101400;;;;
2022/08/21 02:22:00;;;;;;;0.4;0.4;;;;;;;16.7;100.0;101400;;;;
2022/08/21 02:23:00;;;;;;;0.4;0.4;;;;;;;16.7;100.0;101400;;;;
2022/08/21 02:24:00;;;;;;;0.4;0.4;;;;;;;16.8;100.0;101400;;;;
2022/08/21 02:25:00;;;;;;;0.4;0.4;;;;;;;16.8;100.0;101400;;;;
2022/08/21 02:26:01;;;;;;;0.4;0.4;;;;;;;16.8;100.0;101400;;;;
2022/08/21 02:27:00;;;;;;;0.4;0.4;;;;;;;16.8;100.0;101400;;;;
2022/08/21 02:28:03;;;;;;;0.4;0.4;;;;;;;16.7;100.0;101400;;;;
2022/08/21 02:29:00;;;;;;;0.4;0.4;;;;;;;16.7;100.0;101400;;;;
2022/08/21 02:30:00;;;;;;;0.4;0.4;;;;;;;16.8;100.0;101400;;;;
2022/08/21 02:31:00;;;;;;;0.4;0.4;;;;;;;16.8;100.0;101400;;;;
2022/08/21 02:32:00;;;;;;;0.4;0.4;;;;;;;16.8;100.0;101410;;;;
2022/08/21 02:33:00;;;;;;;0.4;0.4;;;;;;;16.8;100.0;101410;;;;
2022/08/21 02:34:00;;;;;;;0.4;0.4;;;;;;;16.8;100.0;101410;;;;
2022/08/21 02:35:00;;;;;;;0.4;0.4;;;;;;;16.8;100.0;101410;;;;
2022/08/21 02:36:00;;;;;;;0.4;0.4;;;;;;;16.8;100.0;101410;;;;
2022/08/21 02:37:00;;;;;;;0.4;0.4;;;;;;;16.8;100.0;101410;;;;
2022/08/21 02:38:04;;;;;;;0.4;0.4;;;;;;;16.8;100.0;101400;;;;
2022/08/21 02:39:00;;;;;;;0.4;0.4;;;;;;;16.8;100.0;101400;;;;
2022/08/21 02:40:00;;;;;;;0.4;0.4;;;;;;;16.8;100.0;101400;;;;
2022/08/21 02:41:00;;;;;;;0.3;0.3;;;;;;;16.8;100.0;101400;;;;
2022/08/21 02:42:00;;;;;;;0.3;0.3;;;;;;;16.6;100.0;101400;;;;
2022/08/21 02:43:00;;;;;;;0.3;0.3;;;;;;;16.6;100.0;101400;;;;
2022/08/21 02:44:00;;;;;;;0.3;0.3;;;;;;;16.4;100.0;101400;;;;
2022/08/21 02:45:00;;;;;;;0.3;0.3;;;;;;;16.4;100.0;101400;;;;
2022/08/21 02:46:00;;;;;;;0.3;0.3;;;;;;;16.6;100.0;101390;;;;
2022/08/21 02:47:00;;;;;;;0.3;0.3;;;;;;;16.6;100.0;101390;;;;
2022/08/21 02:48:04;;;;;;;0.3;0.3;;;;;;;16.5;100.0;101390;;;;
2022/08/21 02:49:00;;;;;;;0.3;0.3;;;;;;;16.5;100.0;101390;;;;
2022/08/21 02:50:00;;;;;;;0.3;0.3;;;;;;;16.6;100.0;101400;;;;
2022/08/21 02:51:02;;;;;;;0.3;0.3;;;;;;;16.6;100.0;101400;;;;
2022/08/21 02:52:00;;;;;;;0.3;0.3;;;;;;;16.6;100.0;101390;;;;
2022/08/21 02:53:00;;;;;;;0.3;0.3;;;;;;;16.6;100.0;101390;;;;
2022/08/21 02:54:00;;;;;;;0.3;0.3;;;;;;;16.6;100.0;101400;;;;
2022/08/21 02:55:00;;;;;;;0.3;0.3;;;;;;;16.6;100.0;101400;;;;
2022/08/21 02:56:01;;;;;;;0.3;0.3;;;;;;;16.6;100.0;101390;;;;
2022/08/21 02:57:00;;;;;;;0.3;0.3;;;;;;;16.6;100.0;101390;;;;
2022/08/21 02:58:00;;;;;;;0.3;0.3;;;;;;;16.5;100.0;101390;;;;
2022/08/21 02:59:00;;;;;;;0.3;0.3;;;;;;;16.5;100.0;101390;;;;
2022/08/21 03:00:00;;;;;;;0.3;0.3;;;;;;;16.5;100.0;101390;;;;
2022/08/21 03:01:00;;;;;;;0.4;0.4;;;;;;;16.5;100.0;101390;;;;
2022/08/21 03:02:00;;;;;;;0.4;0.4;;;;;;;16.6;100.0;101380;;;;
2022/08/21 03:03:00;;;;;;;0.4;0.4;;;;;;;16.6;100.0;101380;;;;
2022/08/21 03:04:00;;;;;;;0.4;0.4;;;;;;;16.4;100.0;101380;;;;
2022/08/21 03:05:00;;;;;;;0.4;0.4;;;;;;;16.4;100.0;101380;;;;
2022/08/21 03:06:00;;;;;;;0.4;0.4;;;;;;;16.5;100.0;101380;;;;
2022/08/21 03:07:00;;;;;;;0.4;0.4;;;;;;;16.5;100.0;101380;;;;
2022/08/21 03:08:01;;;;;;;0.4;0.4;;;;;;;16.5;100.0;101380;;;;
2022/08/21 03:09:00;;;;;;;0.4;0.4;;;;;;;16.5;100.0;101380;;;;
2022/08/21 03:10:00;;;;;;;0.4;0.4;;;;;;;16.4;100.0;101380;;;;
2022/08/21 03:11:01;;;;;;;0.4;0.4;;;;;;;16.4;100.0;101380;;;;
2022/08/21 03:12:00;;;;;;;0.4;0.4;;;;;;;16.4;100.0;101380;;;;
2022/08/21 03:13:00;;;;;;;0.4;0.4;;;;;;;16.4;100.0;101380;;;;
2022/08/21 03:14:00;;;;;;;0.4;0.4;;;;;;;16.5;100.0;101380;;;;
2022/08/21 03:15:00;;;;;;;0.4;0.4;;;;;;;16.5;100.0;101380;;;;
2022/08/21 03:16:00;;;;;;;0.4;0.4;;;;;;;16.4;100.0;101380;;;;
2022/08/21 03:17:00;;;;;;;0.4;0.4;;;;;;;16.4;100.0;101380;;;;
2022/08/21 03:18:00;;;;;;;0.4;0.4;;;;;;;16.5;100.0;101380;;;;
2022/08/21 03:19:00;;;;;;;0.4;0.4;;;;;;;16.5;100.0;101380;;;;
2022/08/21 03:20:00;;;;;;;0.4;0.4;;;;;;;16.4;100.0;101380;;;;
2022/08/21 03:21:00;;;;;;;0.3;0.3;;;;;;;16.4;100.0;101380;;;;
2022/08/21 03:22:00;;;;;;;0.3;0.3;;;;;;;16.5;100.0;101380;;;;
2022/08/21 03:23:03;;;;;;;0.3;0.3;;;;;;;16.5;100.0;101380;;;;
2022/08/21 03:24:04;;;;;;;0.3;0.3;;;;;;;16.5;100.0;101370;;;;
2022/08/21 03:25:05;;;;;;;0.3;0.3;;;;;;;16.5;100.0;101370;;;;
2022/08/21 03:26:00;;;;;;;0.3;0.3;;;;;;;16.4;100.0;101380;;;;
2022/08/21 03:27:00;;;;;;;0.3;0.3;;;;;;;16.4;100.0;101380;;;;
2022/08/21 03:28:01;;;;;;;0.3;0.3;;;;;;;16.4;100.0;101380;;;;
2022/08/21 03:29:00;;;;;;;0.3;0.3;;;;;;;16.4;100.0;101380;;;;
2022/08/21 03:30:01;;;;;;;0.3;0.3;;;;;;;16.4;100.0;101380;;;;
2022/08/21 03:31:00;;;;;;;0.3;0.3;;;;;;;16.4;100.0;101380;;;;
2022/08/21 03:32:00;;;;;;;0.3;0.3;;;;;;;16.4;100.0;101380;;;;
2022/08/21 03:33:00;;;;;;;0.3;0.3;;;;;;;16.4;100.0;101380;;;;
2022/08/21 03:34:00;;;;;;;0.3;0.3;;;;;;;16.4;100.0;101380;;;;
2022/08/21 03:35:00;;;;;;;0.3;0.3;;;;;;;16.4;100.0;101380;;;;
2022/08/21 03:36:02;;;;;;;0.3;0.3;;;;;;;16.4;100.0;101380;;;;
2022/08/21 03:37:00;;;;;;;0.3;0.3;;;;;;;16.4;100.0;101380;;;;
2022/08/21 03:38:00;;;;;;;0.3;0.3;;;;;;;16.4;100.0;101380;;;;
2022/08/21 03:39:00;;;;;;;0.3;0.3;;;;;;;16.4;100.0;101380;;;;
2022/08/21 03:40:00;;;;;;;0.4;0.4;;;;;;;16.3;100.0;101380;;;;
2022/08/21 03:41:00;;;;;;;0.4;0.4;;;;;;;16.3;100.0;101380;;;;
2022/08/21 03:42:00;;;;;;;0.4;0.4;;;;;;;16.3;100.0;101380;;;;
2022/08/21 03:43:00;;;;;;;0.4;0.4;;;;;;;16.3;100.0;101380;;;;
2022/08/21 03:44:00;;;;;;;0.4;0.4;;;;;;;16.2;100.0;101390;;;;
2022/08/21 03:45:00;;;;;;;0.4;0.4;;;;;;;16.2;100.0;101390;;;;
2022/08/21 03:46:01;;;;;;;0.4;0.4;;;;;;;16.2;100.0;101380;;;;
2022/08/21 03:47:00;;;;;;;0.4;0.4;;;;;;;16.2;100.0;101380;;;;
2022/08/21 03:48:01;;;;;;;0.4;0.4;;;;;;;16.2;100.0;101380;;;;
2022/08/21 03:49:00;;;;;;;0.4;0.4;;;;;;;16.2;100.0;101380;;;;
2022/08/21 03:50:00;;;;;;;0.4;0.4;;;;;;;16.1;100.0;101380;;;;
2022/08/21 03:51:00;;;;;;;0.4;0.4;;;;;;;16.1;100.0;101380;;;;
2022/08/21 03:52:00;;;;;;;0.4;0.4;;;;;;;16.2;100.0;101380;;;;
2022/08/21 03:53:00;;;;;;;0.4;0.4;;;;;;;16.2;100.0;101380;;;;
2022/08/21 03:54:00;;;;;;;0.4;0.4;;;;;;;16.2;100.0;101380;;;;
2022/08/21 03:55:00;;;;;;;0.4;0.4;;;;;;;16.2;100.0;101380;;;;
2022/08/21 03:56:00;;;;;;;0.4;0.4;;;;;;;15.9;100.0;101380;;;;
2022/08/21 03:57:01;;;;;;;0.4;0.4;;;;;;;15.9;100.0;101380;;;;
2022/08/21 03:58:10;;;;;;;0.4;0.4;;;;;;;16.0;100.0;101370;;;;
2022/08/21 03:59:01;;;;;;;0.4;0.4;;;;;;;16.0;100.0;101370;;;;
2022/08/21 04:00:00;;;;;;;0.4;0.4;;;;;;;16.0;100.0;101370;;;;
2022/08/21 04:01:00;;;;;;;0.4;0.4;;;;;;;16.0;100.0;101370;;;;
2022/08/21 04:02:01;;;;;;;0.4;0.4;;;;;;;16.0;100.0;101370;;;;
2022/08/21 04:03:00;;;;;;;0.4;0.4;;;;;;;16.0;100.0;101370;;;;
2022/08/21 04:04:00;;;;;;;0.4;0.4;;;;;;;15.7;100.0;101370;;;;
2022/08/21 04:05:00;;;;;;;0.4;0.4;;;;;;;15.7;100.0;101370;;;;
2022/08/21 04:06:00;;;;;;;0.4;0.4;;;;;;;15.7;100.0;101370;;;;
2022/08/21 04:07:00;;;;;;;0.4;0.4;;;;;;;15.7;100.0;101370;;;;
2022/08/21 04:08:01;;;;;;;0.4;0.4;;;;;;;15.7;100.0;101370;;;;
2022/08/21 04:09:00;;;;;;;0.4;0.4;;;;;;;15.7;100.0;101370;;;;
2022/08/21 04:10:00;;;;;;;0.4;0.4;;;;;;;15.9;100.0;101370;;;;
2022/08/21 04:11:00;;;;;;;0.4;0.4;;;;;;;15.9;100.0;101370;;;;
2022/08/21 04:12:00;;;;;;;0.4;0.4;;;;;;;15.9;100.0;101370;;;;
2022/08/21 04:13:00;;;;;;;0.4;0.4;;;;;;;15.9;100.0;101370;;;;
2022/08/21 04:14:00;;;;;;;0.4;0.4;;;;;;;15.9;100.0;101370;;;;
2022/08/21 04:15:01;;;;;;;0.4;0.4;;;;;;;15.9;100.0;101370;;;;
2022/08/21 04:16:00;;;;;;;0.4;0.4;;;;;;;15.9;100.0;101370;;;;
2022/08/21 04:17:00;;;;;;;0.4;0.4;;;;;;;15.9;100.0;101370;;;;
2022/08/21 04:18:00;;;;;;;0.4;0.4;;;;;;;15.8;100.0;101370;;;;
2022/08/21 04:19:00;;;;;;;0.4;0.4;;;;;;;15.8;100.0;101370;;;;
2022/08/21 04:20:00;;;;;;;0.7;0.7;;;;;;;15.5;100.0;101370;;;;
2022/08/21 04:21:01;;;;;;;0.7;0.7;;;;;;;15.5;100.0;101370;;;;
2022/08/21 04:22:00;;;;;;;0.7;0.7;;;;;;;15.6;100.0;101370;;;;
2022/08/21 04:23:00;;;;;;;0.7;0.7;;;;;;;15.6;100.0;101370;;;;
2022/08/21 04:24:00;;;;;;;0.7;0.7;;;;;;;15.7;100.0;101370;;;;
2022/08/21 04:25:00;;;;;;;0.7;0.7;;;;;;;15.7;100.0;101370;;;;
2022/08/21 04:26:00;;;;;;;0.7;0.7;;;;;;;15.6;100.0;101370;;;;
2022/08/21 04:27:00;;;;;;;0.7;0.7;;;;;;;15.6;100.0;101370;;;;
2022/08/21 04:28:01;;;;;;;0.7;0.7;;;;;;;15.6;100.0;101380;;;;
2022/08/21 04:29:00;;;;;;;0.7;0.7;;;;;;;15.6;100.0;101380;;;;
2022/08/21 04:30:00;;;;;;;0.7;0.7;;;;;;;15.5;100.0;101370;;;;
2022/08/21 04:31:00;;;;;;;0.7;0.7;;;;;;;15.5;100.0;101370;;;;
2022/08/21 04:32:00;;;;;;;0.7;0.7;;;;;;;15.6;100.0;101370;;;;
2022/08/21 04:33:00;;;;;;;0.7;0.7;;;;;;;15.6;100.0;101370;;;;
2022/08/21 04:34:00;;;;;;;0.7;0.7;;;;;;;15.5;100.0;101380;;;;
2022/08/21 04:35:01;;;;;;;0.7;0.7;;;;;;;15.5;100.0;101380;;;;
2022/08/21 04:36:00;;;;;;;0.7;0.7;;;;;;;15.4;100.0;101380;;;;
2022/08/21 04:37:00;;;;;;;0.7;0.7;;;;;;;15.4;100.0;101380;;;;
2022/08/21 04:38:00;;;;;;;0.7;0.7;;;;;;;15.4;100.0;101380;;;;
2022/08/21 04:39:03;;;;;;;0.7;0.7;;;;;;;15.4;100.0;101380;;;;
2022/08/21 04:40:00;;;;;;;0.6;0.6;;;;;;;15.5;100.0;101380;;;;
2022/08/21 04:41:00;;;;;;;0.6;0.6;;;;;;;15.5;100.0;101380;;;;
2022/08/21 04:42:00;;;;;;;0.6;0.6;;;;;;;15.4;100.0;101380;;;;
2022/08/21 04:43:03;;;;;;;0.6;0.6;;;;;;;15.4;100.0;101380;;;;
2022/08/21 04:44:00;;;;;;;0.6;0.6;;;;;;;15.5;100.0;101380;;;;
2022/08/21 04:45:00;;;;;;;0.6;0.6;;;;;;;15.5;100.0;101380;;;;
2022/08/21 04:46:00;;;;;;;0.6;0.6;;;;;;;15.4;100.0;101390;;;;
2022/08/21 04:47:00;;;;;;;0.6;0.6;;;;;;;15.4;100.0;101390;;;;
2022/08/21 04:48:01;;;;;;;0.6;0.6;;;;;;;15.4;100.0;101390;;;;
2022/08/21 04:49:00;;;;;;;0.6;0.6;;;;;;;15.4;100.0;101390;;;;
2022/08/21 04:50:00;;;;;;;0.6;0.6;;;;;;;15.4;100.0;101390;;;;
2022/08/21 04:51:06;;;;;;;0.6;0.6;;;;;;;15.3;100.0;101390;;;;
2022/08/21 04:52:00;;;;;;;0.6;0.6;;;;;;;15.3;100.0;101390;;;;
2022/08/21 04:53:00;;;;;;;0.6;0.6;;;;;;;15.3;100.0;101390;;;;
2022/08/21 04:54:08;;;;;;;0.6;0.6;;;;;;;15.3;100.0;101400;;;;
2022/08/21 04:55:00;;;;;;;0.6;0.6;;;;;;;15.3;100.0;101400;;;;
2022/08/21 04:56:02;;;;;;;0.6;0.6;;;;;;;15.3;100.0;101400;;;;
2022/08/21 04:57:03;;;;;;;0.6;0.6;;;;;;;15.3;100.0;101400;;;;
2022/08/21 04:58:00;;;;;;;0.6;0.6;;;;;;;15.3;100.0;101400;;;;
2022/08/21 04:59:03;;;;;;;0.6;0.6;;;;;;;15.3;100.0;101400;;;;
2022/08/21 05:00:00;;;;;;;0.4;0.4;;;;;;;15.3;100.0;101400;;;;
2022/08/21 05:01:01;;;;;;;0.4;0.4;;;;;;;15.3;100.0;101400;;;;
2022/08/21 05:02:01;;;;;;;0.4;0.4;;;;;;;15.4;100.0;101400;;;;
2022/08/21 05:03:00;;;;;;;0.4;0.4;;;;;;;15.4;100.0;101400;;;;
2022/08/21 05:04:02;;;;;;;0.4;0.4;;;;;;;15.3;100.0;101400;;;;
2022/08/21 05:05:00;;;;;;;0.4;0.4;;;;;;;15.3;100.0;101400;;;;
2022/08/21 05:06:00;;;;;;;0.4;0.4;;;;;;;15.3;100.0;101400;;;;
2022/08/21 05:07:02;;;;;;;0.4;0.4;;;;;;;15.3;100.0;101400;;;;
2022/08/21 05:08:01;;;;;;;0.4;0.4;;;;;;;15.3;100.0;101400;;;;
2022/08/21 05:09:02;;;;;;;0.4;0.4;;;;;;;15.3;100.0;101400;;;;
2022/08/21 05:10:00;;;;;;;0.4;0.4;;;;;;;15.2;100.0;101400;;;;
2022/08/21 05:11:00;;;;;;;0.4;0.4;;;;;;;15.2;100.0;101400;;;;
2022/08/21 05:12:01;;;;;;;0.4;0.4;;;;;;;15.2;100.0;101400;;;;
2022/08/21 05:13:00;;;;;;;0.4;0.4;;;;;;;15.2;100.0;101400;;;;
2022/08/21 05:14:00;;;;;;;0.4;0.4;;;;;;;15.3;100.0;101400;;;;
2022/08/21 05:15:00;;;;;;;0.4;0.4;;;;;;;15.3;100.0;101400;;;;
2022/08/21 05:16:00;;;;;;;0.4;0.4;;;;;;;15.4;100.0;101410;;;;
2022/08/21 05:17:00;;;;;;;0.4;0.4;;;;;;;15.4;100.0;101410;;;;
2022/08/21 05:18:01;;;;;;;0.4;0.4;;;;;;;15.3;100.0;101400;;;;
2022/08/21 05:19:00;;;;;;;0.4;0.4;;;;;;;15.3;100.0;101400;;;;
2022/08/21 05:20:00;;;;;;;0.4;0.4;;;;;;;15.3;100.0;101410;;;;
2022/08/21 05:21:00;;;;;;;0.4;0.4;;;;;;;15.3;100.0;101410;;;;
2022/08/21 05:22:00;;;;;;;0.4;0.4;;;;;;;15.2;100.0;101410;;;;
2022/08/21 05:23:00;;;;;;;0.4;0.4;;;;;;;15.2;100.0;101410;;;;
2022/08/21 05:24:00;;;;;;;0.4;0.4;;;;;;;15.2;100.0;101410;;;;
2022/08/21 05:25:00;;;;;;;0.4;0.4;;;;;;;15.2;100.0;101410;;;;
2022/08/21 05:26:00;;;;;;;0.4;0.4;;;;;;;15.0;100.0;101410;;;;
2022/08/21 05:27:04;;;;;;;0.4;0.4;;;;;;;15.0;100.0;101410;;;;
2022/08/21 05:28:00;;;;;;;0.4;0.4;;;;;;;15.1;100.0;101410;;;;
2022/08/21 05:29:00;;;;;;;0.4;0.4;;;;;;;15.1;100.0;101410;;;;
2022/08/21 05:30:00;;;;;;;0.4;0.4;;;;;;;15.2;100.0;101410;;;;
2022/08/21 05:31:00;;;;;;;0.4;0.4;;;;;;;15.2;100.0;101410;;;;
2022/08/21 05:32:00;;;;;;;0.4;0.4;;;;;;;15.3;100.0;101410;;;;
2022/08/21 05:33:01;;;;;;;0.4;0.4;;;;;;;15.3;100.0;101410;;;;
2022/08/21 05:34:03;;;;;;;0.4;0.4;;;;;;;15.1;100.0;101420;;;;
2022/08/21 05:35:00;;;;;;;0.4;0.4;;;;;;;15.1;100.0;101420;;;;
2022/08/21 05:36:00;;;;;;;0.4;0.4;;;;;;;15.2;100.0;101420;;;;
2022/08/21 05:37:06;;;;;;;0.4;0.4;;;;;;;15.3;100.0;101410;;;;
2022/08/21 05:38:00;;;;;;;0.4;0.4;;;;;;;15.3;100.0;101410;;;;
2022/08/21 05:39:00;;;;;;;0.4;0.4;;;;;;;15.3;100.0;101410;;;;
2022/08/21 05:40:10;;;;;;;0.6;0.6;;;;;;;15.3;100.0;101410;;;;
2022/08/21 05:41:00;;;;;;;0.6;0.6;;;;;;;15.3;100.0;101410;;;;
2022/08/21 05:42:00;;;;;;;0.6;0.6;;;;;;;15.3;100.0;101420;;;;
2022/08/21 05:43:01;;;;;;;0.6;0.6;;;;;;;15.3;100.0;101420;;;;
2022/08/21 05:44:00;;;;;;;0.6;0.6;;;;;;;15.5;100.0;101420;;;;
2022/08/21 05:45:00;;;;;;;0.6;0.6;;;;;;;15.5;100.0;101420;;;;
2022/08/21 05:46:00;;;;;;;0.6;0.6;;;;;;;15.4;100.0;101420;;;;
2022/08/21 05:47:04;;;;;;;0.6;0.6;;;;;;;15.4;100.0;101420;;;;
2022/08/21 05:48:10;;;;;;;0.6;0.6;;;;;;;15.4;100.0;101420;;;;
2022/08/21 05:49:00;;;;;;;0.6;0.6;;;;;;;15.4;100.0;101420;;;;
2022/08/21 05:50:00;;;;;;;0.6;0.6;;;;;;;15.5;100.0;101420;;;;
2022/08/21 05:51:09;;;;;;;0.6;0.6;;;;;;;15.6;100.0;101420;;;;
2022/08/21 05:52:00;;;;;;;0.6;0.6;;;;;;;15.6;100.0;101420;;;;
2022/08/21 05:53:08;;;;;;;0.6;0.6;;;;;;;15.6;100.0;101430;;;;
2022/08/21 05:54:00;;;;;;;0.6;0.6;;;;;;;15.6;100.0;101430;;;;
2022/08/21 05:55:00;;;;;;;0.6;0.6;;;;;;;15.6;100.0;101430;;;;
2022/08/21 05:56:00;;;;;;;0.6;0.6;;;;;;;15.5;100.0;101430;;;;
2022/08/21 05:57:00;;;;;;;0.6;0.6;;;;;;;15.5;100.0;101430;;;;
2022/08/21 05:58:00;;;;;;;0.6;0.6;;;;;;;15.6;100.0;101430;;;;
2022/08/21 05:59:00;;;;;;;0.6;0.6;;;;;;;15.6;100.0;101430;;;;
2022/08/21 06:00:00;;;;;;;0.8;0.8;;;;;;;15.6;100.0;101430;;;;
2022/08/21 06:01:02;;;;;;;0.8;0.8;;;;;;;15.6;100.0;101430;;;;
2022/08/21 06:02:07;;;;;;;0.8;0.8;;;;;;;15.7;100.0;101430;;;;
2022/08/21 06:03:00;;;;;;;0.8;0.8;;;;;;;15.7;100.0;101430;;;;
2022/08/21 06:04:01;;;;;;;0.8;0.8;;;;;;;15.7;100.0;101430;;;;
2022/08/21 06:05:00;;;;;;;0.8;0.8;;;;;;;15.7;100.0;101430;;;;
2022/08/21 06:06:00;;;;;;;0.8;0.8;;;;;;;15.6;100.0;101430;;;;
2022/08/21 06:07:00;;;;;;;0.8;0.8;;;;;;;15.6;100.0;101430;;;;
2022/08/21 06:08:00;;;;;;;0.8;0.8;;;;;;;15.7;100.0;101430;;;;
2022/08/21 06:09:00;;;;;;;0.8;0.8;;;;;;;15.7;100.0;101430;;;;
2022/08/21 06:10:00;;;;;;;0.8;0.8;;;;;;;15.9;100.0;101430;;;;
2022/08/21 06:11:00;;;;;;;0.8;0.8;;;;;;;15.9;100.0;101430;;;;
2022/08/21 06:12:08;;;;;;;0.8;0.8;;;;;;;15.9;100.0;101430;;;;
2022/08/21 06:13:00;;;;;;;0.8;0.8;;;;;;;15.9;100.0;101430;;;;
2022/08/21 06:14:00;;;;;;;0.8;0.8;;;;;;;15.9;100.0;101430;;;;
2022/08/21 06:15:00;;;;;;;0.8;0.8;;;;;;;15.9;100.0;101430;;;;
2022/08/21 06:16:07;;;;;;;0.8;0.8;;;;;;;16.0;100.0;101430;;;;
2022/08/21 06:17:03;;;;;;;0.8;0.8;;;;;;;16.0;100.0;101430;;;;
2022/08/21 06:18:00;;;;;;;0.8;0.8;;;;;;;16.0;100.0;101430;;;;
2022/08/21 06:19:03;;;;;;;0.8;0.8;;;;;;;16.0;100.0;101430;;;;
2022/08/21 06:20:00;;;;;;;0.3;0.3;;;;;;;16.0;100.0;101430;;;;
2022/08/21 06:21:01;;;;;;;0.3;0.3;;;;;;;16.0;100.0;101430;;;;
2022/08/21 06:22:00;;;;;;;0.3;0.3;;;;;;;16.1;100.0;101430;;;;